createdAt,value
2023-04-13T00:02:22.013Z,9.94
2023-04-13T00:04:54.760Z,9.94
2023-04-13T00:07:28.335Z,9.92
2023-04-13T00:10:03.049Z,9.91
2023-04-13T00:12:35.392Z,9.90
2023-04-13T00:15:08.551Z,9.84
2023-04-13T00:17:40.306Z,9.87
2023-04-13T00:20:14.686Z,9.85
2023-04-13T00:22:47.880Z,9.83
2023-04-13T00:25:20.131Z,9.74
2023-04-13T00:27:53.850Z,9.72
2023-04-13T00:30:25.557Z,9.60
2023-04-13T00:32:59.577Z,9.59
2023-04-13T00:35:32.873Z,9.61
2023-04-13T00:38:04.854Z,9.68
2023-04-13T00:40:37.792Z,9.70
2023-04-13T00:43:09.856Z,9.65
2023-04-13T00:45:41.981Z,9.63
2023-04-13T00:48:14.435Z,9.65
2023-04-13T00:50:46.428Z,9.67
2023-04-13T00:53:18.578Z,9.70
2023-04-13T00:55:51.757Z,9.72
2023-04-13T00:58:23.710Z,9.74
2023-04-13T01:00:55.665Z,9.67
2023-04-13T01:03:27.540Z,9.58
2023-04-13T01:06:14.260Z,9.59
2023-04-13T01:08:51.760Z,9.64
2023-04-13T01:11:30.047Z,9.68
2023-04-13T01:14:10.117Z,9.70
2023-04-13T01:16:49.247Z,9.66
2023-04-13T01:19:29.530Z,9.61
2023-04-13T01:22:03.517Z,9.58
2023-04-13T01:24:48.107Z,9.57
2023-04-13T01:27:25.663Z,9.59
2023-04-13T01:29:58.936Z,9.56
2023-04-13T01:32:33.280Z,9.63
2023-04-13T01:35:06.710Z,9.68
2023-04-13T01:37:38.971Z,9.69
2023-04-13T01:40:13.487Z,9.68
2023-04-13T01:42:49.385Z,9.65
2023-04-13T01:45:24.048Z,9.68
2023-04-13T01:48:05.771Z,9.72
2023-04-13T01:50:59.683Z,9.71
2023-04-13T01:53:45.938Z,9.70
2023-04-13T01:56:23.008Z,9.61
2023-04-13T01:59:00.802Z,9.64
2023-04-13T02:01:34.042Z,9.70
2023-04-13T02:04:07.764Z,9.62
2023-04-13T02:06:42.239Z,9.57
2023-04-13T02:09:14.497Z,9.56
2023-04-13T02:11:47.414Z,9.64
2023-04-13T02:14:19.186Z,9.65
2023-04-13T02:16:51.831Z,9.71
2023-04-13T02:19:24.644Z,9.73
2023-04-13T02:21:56.902Z,9.72
2023-04-13T02:24:30.185Z,9.76
2023-04-13T02:27:02.061Z,9.78
2023-04-13T02:29:34.261Z,9.76
2023-04-13T02:32:07.861Z,9.66
2023-04-13T02:34:39.903Z,9.59
2023-04-13T02:37:12.691Z,9.60
2023-04-13T02:39:44.487Z,9.64
2023-04-13T02:42:16.409Z,9.64
2023-04-13T02:44:49.965Z,9.67
2023-04-13T02:47:22.632Z,9.67
2023-04-13T02:49:55.085Z,9.67
2023-04-13T02:52:32.012Z,9.65
2023-04-13T02:55:09.633Z,9.63
2023-04-13T02:58:02.685Z,9.57
2023-04-13T03:00:37.448Z,9.63
2023-04-13T03:03:13.234Z,9.64
2023-04-13T03:05:50.521Z,9.64
2023-04-13T03:08:26.098Z,9.69
2023-04-13T03:11:18.815Z,9.67
2023-04-13T03:13:58.335Z,9.63
2023-04-13T03:16:32.088Z,9.64
2023-04-13T03:19:05.396Z,9.65
2023-04-13T03:21:37.670Z,9.64
2023-04-13T03:24:19.077Z,9.60
2023-04-13T03:26:50.855Z,9.58
2023-04-13T03:29:26.816Z,9.57
2023-04-13T03:31:58.625Z,9.59
2023-04-13T03:34:31.907Z,9.57
2023-04-13T03:37:05.424Z,9.55
2023-04-13T03:39:37.279Z,9.57
2023-04-13T03:42:09.322Z,9.57
2023-04-13T03:44:42.989Z,9.60
2023-04-13T03:47:14.797Z,9.57
2023-04-13T03:49:46.607Z,9.59
2023-04-13T03:52:18.610Z,9.57
2023-04-13T03:54:56.542Z,9.60
2023-04-13T03:57:30.722Z,9.57
2023-04-13T04:00:03.817Z,9.56
2023-04-13T04:02:58.244Z,9.56
2023-04-13T04:05:36.517Z,9.59
2023-04-13T04:08:07.559Z,9.62
2023-04-13T04:10:39.738Z,9.64
2023-04-13T04:13:11.984Z,9.64
2023-04-13T04:15:47.298Z,9.62
2023-04-13T04:18:19.874Z,9.63
2023-04-13T04:20:52.082Z,9.58
2023-04-13T04:23:28.209Z,9.61
2023-04-13T04:26:07.450Z,9.66
2023-04-13T04:28:50.624Z,9.65
2023-04-13T04:31:25.161Z,9.64
2023-04-13T04:33:58.544Z,9.59
2023-04-13T04:36:30.904Z,9.63
2023-04-13T04:39:06.188Z,9.65
2023-04-13T04:41:44.090Z,9.62
2023-04-13T04:44:17.895Z,9.62
2023-04-13T04:46:52.284Z,9.63
2023-04-13T04:49:24.437Z,9.68
2023-04-13T04:51:59.099Z,9.65
2023-04-13T04:54:30.905Z,9.60
2023-04-13T04:57:04.074Z,9.62
2023-04-13T04:59:36.223Z,9.60
2023-04-13T05:02:08.238Z,9.57
2023-04-13T05:04:42.032Z,9.60
2023-04-13T05:07:17.624Z,9.69
2023-04-13T05:09:50.297Z,9.76
2023-04-13T05:12:23.085Z,9.80
2023-04-13T05:14:55.036Z,9.86
2023-04-13T05:17:27.387Z,9.83
2023-04-13T05:19:58.124Z,9.79
2023-04-13T05:22:41.592Z,9.85
2023-04-13T05:25:14.651Z,9.88
2023-04-13T05:27:47.532Z,9.96
2023-04-13T05:30:20.096Z,10.05
2023-04-13T05:32:53.025Z,10.20
2023-04-13T05:35:27.871Z,10.24
2023-04-13T05:38:01.256Z,10.24
2023-04-13T05:40:35.299Z,10.23
2023-04-13T05:43:07.894Z,10.24
2023-04-13T05:45:43.488Z,10.24
2023-04-13T05:48:18.046Z,10.26
2023-04-13T05:50:50.865Z,10.25
2023-04-13T05:53:23.620Z,10.26
2023-04-13T05:55:59.668Z,10.28
2023-04-13T05:58:31.868Z,10.29
2023-04-13T06:01:24.380Z,10.30
2023-04-13T06:03:57.897Z,10.27
2023-04-13T06:06:30.395Z,10.24
2023-04-13T06:09:02.911Z,10.30
2023-04-13T06:11:34.978Z,10.37
2023-04-13T06:14:06.378Z,10.42
2023-04-13T06:16:38.329Z,10.46
2023-04-13T06:19:12.394Z,10.50
2023-04-13T06:21:44.600Z,10.53
2023-04-13T06:24:18.637Z,10.57
2023-04-13T06:26:51.257Z,10.63
2023-04-13T06:29:23.548Z,10.66
2023-04-13T06:32:04.270Z,10.69
2023-04-13T06:34:35.590Z,10.72
2023-04-13T06:37:07.934Z,10.75
2023-04-13T06:39:47.588Z,10.79
2023-04-13T06:42:20.641Z,10.77
2023-04-13T06:45:24.738Z,10.82
2023-04-13T06:47:57.048Z,10.85
2023-04-13T06:50:30.012Z,10.90
2023-04-13T06:53:03.601Z,10.92
2023-04-13T06:55:36.252Z,10.95
2023-04-13T06:58:08.290Z,10.98
2023-04-13T07:00:40.121Z,10.99
2023-04-13T07:03:12.227Z,11.03
2023-04-13T07:05:45.104Z,11.03
2023-04-13T07:08:20.198Z,11.07
2023-04-13T07:10:57.984Z,11.08
2023-04-13T07:13:37.186Z,11.09
2023-04-13T07:16:12.386Z,11.11
2023-04-13T07:18:47.075Z,11.18
2023-04-13T07:21:19.084Z,11.25
2023-04-13T07:24:04.735Z,11.33
2023-04-13T07:26:37.008Z,11.39
2023-04-13T07:29:13.673Z,11.42
2023-04-13T07:31:48.902Z,11.44
2023-04-13T07:34:21.858Z,11.49
2023-04-13T07:36:54.454Z,11.52
2023-04-13T07:39:27.859Z,11.59
2023-04-13T07:42:00.309Z,11.58
2023-04-13T07:44:39.399Z,11.61
2023-04-13T07:47:13.914Z,11.65
2023-04-13T07:49:46.777Z,11.70
2023-04-13T07:52:21.958Z,11.75
2023-04-13T07:54:54.123Z,11.83
2023-04-13T07:57:27.509Z,11.88
2023-04-13T08:00:05.175Z,11.96
2023-04-13T08:02:45.931Z,11.98
2023-04-13T08:05:22.043Z,11.98
2023-04-13T08:07:54.632Z,12.02
2023-04-13T08:10:27.047Z,12.10
2023-04-13T08:13:00.466Z,12.15
2023-04-13T08:15:32.637Z,12.20
2023-04-13T08:18:04.894Z,12.23
2023-04-13T08:20:37.541Z,12.25
2023-04-13T08:23:12.473Z,12.26
2023-04-13T08:25:45.511Z,12.21
2023-04-13T08:28:20.554Z,12.17
2023-04-13T08:30:52.597Z,12.28
2023-04-13T08:33:24.444Z,12.37
2023-04-13T08:35:56.336Z,12.41
2023-04-13T08:38:28.604Z,12.42
2023-04-13T08:41:02.506Z,12.34
2023-04-13T08:43:36.910Z,12.35
2023-04-13T08:46:10.246Z,12.39
2023-04-13T08:48:53.567Z,12.41
2023-04-13T08:51:31.275Z,12.38
2023-04-13T08:54:03.080Z,12.40
2023-04-13T08:56:46.652Z,12.40
2023-04-13T08:59:24.199Z,12.46
2023-04-13T09:01:57.393Z,12.57
2023-04-13T09:04:35.768Z,12.67
2023-04-13T09:07:09.313Z,12.76
2023-04-13T09:09:45.799Z,12.83
2023-04-13T09:12:18.810Z,13.00
2023-04-13T09:14:51.234Z,13.07
2023-04-13T09:17:28.011Z,13.18
2023-04-13T09:20:14.868Z,13.26
2023-04-13T09:22:47.048Z,13.20
2023-04-13T09:25:27.523Z,13.11
2023-04-13T09:28:00.921Z,13.15
2023-04-13T09:30:32.725Z,13.22
2023-04-13T09:33:10.519Z,13.30
2023-04-13T09:35:43.209Z,13.46
2023-04-13T09:38:18.061Z,13.57
2023-04-13T09:40:54.519Z,13.73
2023-04-13T09:43:37.646Z,13.95
2023-04-13T09:46:14.884Z,14.15
2023-04-13T09:48:46.962Z,14.31
2023-04-13T09:51:20.383Z,14.42
2023-04-13T09:53:56.249Z,14.41
2023-04-13T09:56:28.432Z,14.45
2023-04-13T09:59:00.505Z,14.44
2023-04-13T10:01:32.963Z,14.40
2023-04-13T10:04:07.582Z,14.37
2023-04-13T10:06:43.225Z,14.57
2023-04-13T10:09:16.082Z,14.61
2023-04-13T10:11:47.915Z,14.65
2023-04-13T10:14:22.949Z,14.64
2023-04-13T10:17:12.885Z,14.70
2023-04-13T10:19:47.798Z,14.70
2023-04-13T10:22:22.798Z,14.77
2023-04-13T10:24:55.122Z,14.77
2023-04-13T10:27:29.886Z,14.80
2023-04-13T10:30:04.091Z,14.80
2023-04-13T10:32:36.017Z,14.81
2023-04-13T10:35:15.189Z,14.82
2023-04-13T10:37:57.572Z,14.77
2023-04-13T10:40:29.763Z,14.69
2023-04-13T10:43:01.831Z,14.62
2023-04-13T10:45:37.004Z,14.67
2023-04-13T10:48:09.152Z,14.80
2023-04-13T10:50:41.448Z,14.91
2023-04-13T10:53:13.299Z,14.93
2023-04-13T10:55:45.236Z,14.92
2023-04-13T10:58:18.606Z,15.00
2023-04-13T11:00:52.238Z,15.21
2023-04-13T11:03:27.743Z,15.30
2023-04-13T11:06:01.341Z,15.39
2023-04-13T11:08:34.979Z,15.49
2023-04-13T11:11:16.801Z,15.59
2023-04-13T11:13:50.595Z,15.64
2023-04-13T11:16:22.488Z,15.61
2023-04-13T11:19:05.039Z,15.62
2023-04-13T11:21:37.175Z,15.58
2023-04-13T11:24:10.228Z,15.45
2023-04-13T11:26:43.482Z,15.54
2023-04-13T11:29:21.743Z,15.56
2023-04-13T11:31:53.603Z,15.60
2023-04-13T11:34:29.790Z,15.70
2023-04-13T11:37:05.737Z,15.76
2023-04-13T11:39:40.069Z,15.71
2023-04-13T11:42:12.638Z,15.49
2023-04-13T11:44:46.414Z,15.45
2023-04-13T11:47:21.253Z,15.32
2023-04-13T11:49:53.871Z,15.28
2023-04-13T11:52:26.665Z,15.29
2023-04-13T11:55:04.684Z,15.29
2023-04-13T11:57:43.069Z,15.20
2023-04-13T12:00:23.947Z,15.18
2023-04-13T12:05:34.458Z,15.05
2023-04-13T12:08:07.399Z,14.93
2023-04-13T12:10:47.030Z,14.84
2023-04-13T12:13:40.036Z,14.69
2023-04-13T12:19:12.674Z,14.45
2023-04-13T12:21:56.830Z,14.36
2023-04-13T12:24:38.664Z,14.23
2023-04-13T12:27:18.372Z,14.25
2023-04-13T12:29:50.814Z,14.18
2023-04-13T12:32:26.993Z,14.04
2023-04-13T12:34:58.850Z,13.96
2023-04-13T12:37:30.616Z,13.87
2023-04-13T12:40:05.488Z,13.84
2023-04-13T12:42:37.724Z,13.88
2023-04-13T12:45:11.421Z,13.92
2023-04-13T12:47:43.347Z,13.95
2023-04-13T12:50:15.780Z,13.93
2023-04-13T12:52:47.648Z,13.81
2023-04-13T12:55:19.434Z,13.78
2023-04-13T12:57:51.378Z,13.75
2023-04-13T13:00:24.740Z,13.73
2023-04-13T13:03:10.141Z,13.71
2023-04-13T13:05:45.149Z,13.55
2023-04-13T13:08:17.279Z,13.45
2023-04-13T13:10:49.147Z,13.38
2023-04-13T13:13:21.396Z,13.42
2023-04-13T13:15:53.238Z,13.40
2023-04-13T13:18:38.488Z,13.40
2023-04-13T13:21:19.356Z,13.41
2023-04-13T13:23:51.580Z,13.38
2023-04-13T13:26:25.115Z,13.31
2023-04-13T13:29:01.075Z,13.38
2023-04-13T13:31:33.438Z,13.42
2023-04-13T13:34:05.625Z,13.42
2023-04-13T13:36:40.340Z,13.32
2023-04-13T13:39:13.420Z,13.34
2023-04-13T13:41:45.371Z,13.30
2023-04-13T13:44:17.529Z,13.20
2023-04-13T13:46:49.884Z,13.11
2023-04-13T13:49:24.897Z,13.05
2023-04-13T13:52:17.153Z,13.02
2023-04-13T13:54:52.376Z,12.94
2023-04-13T13:57:24.630Z,12.93
2023-04-13T13:59:56.907Z,12.93
2023-04-13T14:02:28.883Z,12.92
2023-04-13T14:05:01.141Z,13.03
2023-04-13T14:07:33.826Z,13.02
2023-04-13T14:10:06.475Z,13.05
2023-04-13T14:12:39.201Z,13.00
2023-04-13T14:15:13.378Z,12.93
2023-04-13T14:17:55.517Z,12.86
2023-04-13T14:20:34.044Z,12.86
2023-04-13T14:23:05.998Z,12.85
2023-04-13T14:25:38.714Z,12.88
2023-04-13T14:28:09.486Z,12.86
2023-04-13T14:30:42.039Z,12.89
2023-04-13T14:33:14.759Z,12.84
2023-04-13T14:35:45.564Z,12.88
2023-04-13T14:38:17.833Z,12.92
2023-04-13T14:40:49.753Z,12.95
2023-04-13T14:43:21.662Z,12.97
2023-04-13T14:45:56.505Z,13.04
2023-04-13T14:48:28.524Z,13.08
2023-04-13T14:51:00.956Z,13.10
2023-04-13T14:53:33.059Z,13.05
2023-04-13T14:56:05.556Z,13.13
2023-04-13T14:58:37.427Z,13.18
2023-04-13T15:01:19.898Z,13.27
2023-04-13T15:03:53.418Z,13.33
2023-04-13T15:06:27.335Z,13.33
2023-04-13T15:09:00.693Z,13.26
2023-04-13T15:11:33.645Z,13.27
2023-04-13T15:14:05.779Z,13.30
2023-04-13T15:16:37.886Z,13.27
2023-04-13T15:19:09.931Z,13.28
2023-04-13T15:21:41.820Z,13.24
2023-04-13T15:24:13.785Z,13.24
2023-04-13T15:26:46.041Z,13.27
2023-04-13T15:29:17.874Z,13.18
2023-04-13T15:31:51.702Z,13.23
2023-04-13T15:34:24.542Z,13.20
2023-04-13T15:36:55.689Z,13.13
2023-04-13T15:39:28.403Z,13.14
2023-04-13T15:42:00.517Z,13.07
2023-04-13T15:44:32.538Z,13.09
2023-04-13T15:47:04.446Z,13.16
2023-04-13T15:49:36.394Z,13.24
2023-04-13T15:52:08.521Z,13.23
2023-04-13T15:54:41.258Z,13.16
2023-04-13T15:57:13.236Z,13.15
2023-04-13T15:59:46.421Z,13.10
2023-04-13T16:02:18.489Z,13.04
2023-04-13T16:04:51.011Z,13.02
2023-04-13T16:07:23.353Z,12.87
2023-04-13T16:09:58.320Z,12.88
2023-04-13T16:12:32.424Z,12.93
2023-04-13T16:15:06.259Z,12.93
2023-04-13T16:17:41.027Z,12.91
2023-04-13T16:20:21.276Z,12.80
2023-04-13T16:22:58.104Z,12.75
2023-04-13T16:25:30.771Z,12.66
2023-04-13T16:28:02.695Z,12.69
2023-04-13T16:30:34.618Z,12.84
2023-04-13T16:33:06.724Z,13.72
2023-04-13T16:35:38.620Z,13.41
2023-04-13T16:38:10.799Z,13.31
2023-04-13T16:40:46.209Z,13.20
2023-04-13T16:43:19.429Z,13.09
2023-04-13T16:45:52.345Z,12.99
2023-04-13T16:48:26.980Z,12.87
2023-04-13T16:51:02.601Z,12.68
2023-04-13T16:53:34.538Z,12.53
2023-04-13T16:56:07.336Z,12.53
2023-04-13T16:58:39.396Z,12.40
2023-04-13T17:01:11.523Z,12.38
2023-04-13T17:03:43.544Z,12.30
2023-04-13T17:06:15.835Z,12.28
2023-04-13T17:08:48.212Z,12.27
2023-04-13T17:11:18.935Z,12.17
2023-04-13T17:13:51.513Z,12.08
2023-04-13T17:16:24.751Z,11.90
2023-04-13T17:18:56.661Z,11.86
2023-04-13T17:21:28.744Z,11.85
2023-04-13T17:24:00.682Z,11.82
2023-04-13T17:26:33.258Z,11.69
2023-04-13T17:29:05.077Z,11.61
2023-04-13T17:31:37.454Z,11.57
2023-04-13T17:34:09.528Z,11.48
2023-04-13T17:36:41.411Z,11.40
2023-04-13T17:39:13.260Z,11.36
2023-04-13T17:41:45.570Z,11.33
2023-04-13T17:44:17.678Z,11.30
2023-04-13T17:46:54.351Z,11.32
2023-04-13T17:49:27.887Z,11.32
2023-04-13T17:52:01.742Z,11.31
2023-04-13T17:54:34.103Z,11.31
2023-04-13T17:57:07.336Z,11.15
2023-04-13T17:59:39.645Z,11.13
2023-04-13T18:02:11.900Z,11.03
2023-04-13T18:04:44.798Z,11.02
2023-04-13T18:07:17.482Z,10.99
2023-04-13T18:09:48.266Z,10.92
2023-04-13T18:12:20.259Z,10.88
2023-04-13T18:14:52.125Z,10.82
2023-04-13T18:17:24.335Z,10.74
2023-04-13T18:19:56.621Z,10.71
2023-04-13T18:22:28.559Z,10.70
2023-04-13T18:25:00.715Z,10.71
2023-04-13T18:27:32.680Z,10.69
2023-04-13T18:30:04.868Z,10.59
2023-04-13T18:32:37.538Z,10.53
2023-04-13T18:35:12.379Z,10.56
2023-04-13T18:37:44.658Z,10.59
2023-04-13T18:40:17.039Z,10.54
2023-04-13T18:42:50.084Z,10.54
2023-04-13T18:45:22.554Z,10.47
2023-04-13T18:47:55.067Z,10.38
2023-04-13T18:50:27.654Z,10.41
2023-04-13T18:52:58.077Z,10.36
2023-04-13T18:55:31.327Z,10.33
2023-04-13T18:58:03.433Z,10.31
2023-04-13T19:00:38.464Z,10.33
2023-04-13T19:03:11.211Z,10.30
2023-04-13T19:05:43.932Z,10.29
2023-04-13T19:08:15.419Z,10.33
2023-04-13T19:10:49.312Z,10.36
2023-04-13T19:13:21.586Z,10.27
2023-04-13T19:15:54.373Z,10.30
2023-04-13T19:18:27.847Z,10.30
2023-04-13T19:21:01.082Z,10.32
2023-04-13T19:23:33.279Z,10.32
2023-04-13T19:26:06.389Z,10.22
2023-04-13T19:28:38.630Z,10.20
2023-04-13T19:31:11.765Z,10.11
2023-04-13T19:33:42.231Z,10.14
2023-04-13T19:36:14.999Z,10.10
2023-04-13T19:38:47.038Z,10.09
2023-04-13T19:41:19.157Z,10.05
2023-04-13T19:43:51.563Z,10.16
2023-04-13T19:46:22.233Z,10.13
2023-04-13T19:48:54.445Z,10.14
2023-04-13T19:51:26.663Z,10.10
2023-04-13T19:54:01.241Z,10.12
2023-04-13T19:56:35.685Z,10.05
2023-04-13T19:59:09.222Z,10.07
2023-04-13T20:01:41.732Z,10.11
2023-04-13T20:04:12.754Z,10.08
2023-04-13T20:06:45.043Z,10.17
2023-04-13T20:09:17.342Z,10.16
2023-04-13T20:11:49.421Z,10.16
2023-04-13T20:14:21.762Z,10.14
2023-04-13T20:16:53.731Z,10.13
2023-04-13T20:19:26.166Z,10.20
2023-04-13T20:22:02.094Z,10.15
2023-04-13T20:24:34.579Z,10.05
2023-04-13T20:27:06.845Z,10.00
2023-04-13T20:29:41.839Z,9.96
2023-04-13T20:32:13.831Z,9.95
2023-04-13T20:34:45.949Z,9.94
2023-04-13T20:37:18.577Z,9.98
2023-04-13T20:39:51.035Z,9.94
2023-04-13T20:42:23.444Z,9.95
2023-04-13T20:45:01.779Z,9.97
2023-04-13T20:47:35.585Z,9.91
2023-04-13T20:50:10.366Z,9.87
2023-04-13T20:52:42.814Z,9.98
2023-04-13T20:55:17.068Z,9.99
2023-04-13T20:57:50.373Z,10.04
2023-04-13T21:00:25.021Z,10.03
2023-04-13T21:02:57.964Z,10.00
2023-04-13T21:05:30.185Z,9.93
2023-04-13T21:08:02.096Z,9.96
2023-04-13T21:10:34.052Z,9.93
2023-04-13T21:13:10.452Z,9.92
2023-04-13T21:15:42.715Z,9.86
2023-04-13T21:18:15.013Z,9.81
2023-04-13T21:20:46.799Z,9.74
2023-04-13T21:23:18.650Z,9.72
2023-04-13T21:25:50.511Z,9.70
2023-04-13T21:28:22.230Z,9.73
2023-04-13T21:30:54.074Z,9.80
2023-04-13T21:33:25.954Z,9.82
2023-04-13T21:35:57.756Z,9.84
2023-04-13T21:38:29.441Z,9.84
2023-04-13T21:41:01.713Z,9.86
2023-04-13T21:43:33.853Z,9.84
2023-04-13T21:46:06.021Z,9.92
2023-04-13T21:48:37.955Z,9.95
2023-04-13T21:51:11.279Z,9.95
2023-04-13T21:53:43.113Z,9.83
2023-04-13T21:56:14.968Z,9.75
2023-04-13T21:58:47.609Z,9.81
2023-04-13T22:01:19.460Z,9.73
2023-04-13T22:03:52.372Z,9.64
2023-04-13T22:06:24.178Z,9.62
2023-04-13T22:08:55.980Z,9.67
2023-04-13T22:11:27.799Z,9.54
2023-04-13T22:14:00.099Z,9.49
2023-04-13T22:16:32.018Z,9.44
2023-04-13T22:19:04.128Z,9.42
2023-04-13T22:21:38.678Z,9.51
2023-04-13T22:24:10.590Z,9.46
2023-04-13T22:26:42.531Z,9.45
2023-04-13T22:29:14.461Z,9.44
2023-04-13T22:31:46.815Z,9.42
2023-04-13T22:34:19.123Z,9.40
2023-04-13T22:36:53.096Z,9.51
2023-04-13T22:39:25.654Z,9.59
2023-04-13T22:41:58.241Z,9.62
2023-04-13T22:44:35.035Z,9.67
2023-04-13T22:47:07.051Z,9.74
2023-04-13T22:49:38.798Z,9.77
2023-04-13T22:52:11.593Z,9.70
2023-04-13T22:54:41.860Z,9.64
2023-04-13T22:57:13.554Z,9.68
2023-04-13T22:59:45.813Z,9.66
2023-04-13T23:02:17.750Z,9.60
2023-04-13T23:04:49.870Z,9.57
2023-04-13T23:07:21.980Z,9.49
2023-04-13T23:09:54.716Z,9.53
2023-04-13T23:12:27.081Z,9.42
2023-04-13T23:14:59.331Z,9.47
2023-04-13T23:17:31.227Z,9.47
2023-04-13T23:20:05.432Z,9.43
2023-04-13T23:22:37.639Z,9.55
2023-04-13T23:25:10.553Z,9.57
2023-04-13T23:27:42.319Z,9.67
2023-04-13T23:30:16.005Z,9.76
2023-04-13T23:32:47.970Z,9.76
2023-04-13T23:35:20.107Z,9.63
2023-04-13T23:37:52.113Z,9.67
2023-04-13T23:40:24.128Z,9.71
2023-04-13T23:42:55.997Z,9.60
2023-04-13T23:45:28.532Z,9.58
2023-04-13T23:48:00.502Z,9.65
2023-04-13T23:50:32.366Z,9.63
2023-04-13T23:53:04.092Z,9.66
2023-04-13T23:55:35.993Z,9.61
2023-04-13T23:58:07.833Z,9.65
